PWSweather.com
Personal Weather Stations
Station Observations
RIORANCHO
Corrales Heights, Rio Rancho, NM 87124

Corrales HeightsRio Rancho, NM 87124

Lat: 35.241928, Lon: -106.647095

Elevation: 5297

Station Type: Davis Vantage Pro 2 Plus

http://www.weatherriorancho.com

High Low Average
Temperature 49.6°F9.8°F 28.9°F-1.7°F 38.1°F3.4°F
Dew Point 33.0°F0.6°F 13.1°F-10.5°F 21.2°F-6.0°F
Winds 15.0 mph SW24.1 mph SW Calm Calm 2.3 mph 3.7 mph
Wind Gusts 23.0 mph37.0 mph -- 5.1 mph8.2 mph
Humidity 84% 25% 54%
Pressure 30.08 in1018.60 in 29.99 in1015.60 in -
Precipitation 0.00 in0.00 in - -
Hour Temp Dew Point Humidity Winds Wind Gusts Pressure Precip Precip Rate Daily Precip Total
12:20 AM 33.4°F0.8°C 25.3°F-3.7°C 72% 8.1 mph N13.0 kmh N 12.7 mph20.4 kmh 30.01 in1016.3 mb - 0.00 in0.0 mm 0.00 in0.0 mm
01:20 AM 33.3°F0.7°C 24.2°F-4.3°C 69% 2.3 mph N3.7 kmh N 10.4 mph16.7 kmh 30.01 in1016.3 mb - 0.00 in0.0 mm 0.00 in0.0 mm
01:30 AM 33.2°F0.7°C 24.1°F-4.4°C 69% 3.5 mph 5.6 kmh 10.4 mph16.7 kmh 30.00 in1015.9 mb - 0.00 in0.0 mm 0.00 in0.0 mm
01:40 AM 33.1°F0.6°C 24.0°F-4.4°C 69% 2.3 mph N3.7 kmh N 9.2 mph14.8 kmh 30.00 in1015.9 mb - 0.00 in0.0 mm 0.00 in0.0 mm
01:50 AM 33.2°F0.7°C 23.4°F-4.8°C 67% 4.6 mph N7.4 kmh N 4.6 mph7.4 kmh 30.00 in1015.9 mb - 0.00 in0.0 mm 0.00 in0.0 mm
02:00 AM 33.1°F0.6°C 23.4°F-4.8°C 67% 1.2 mph N1.9 kmh N 1.2 mph1.9 kmh 30.00 in1015.9 mb - 0.00 in0.0 mm 0.00 in0.0 mm
02:10 AM 33.1°F0.6°C 23.3°F-4.8°C 67% 1.2 mph N1.9 kmh N 1.2 mph1.9 kmh 30.00 in1015.9 mb - 0.00 in0.0 mm 0.00 in0.0 mm
02:20 AM 33.0°F0.6°C 23.2°F-4.9°C 67% 1.2 mph N1.9 kmh N 2.3 mph3.7 kmh 29.99 in1015.6 mb - 0.00 in0.0 mm 0.00 in0.0 mm
02:30 AM 32.9°F0.5°C 23.5°F-4.7°C 68% 1.2 mph N1.9 kmh N 3.5 mph5.6 kmh 29.99 in1015.6 mb - 0.00 in0.0 mm 0.00 in0.0 mm
02:40 AM 32.8°F0.4°C 23.1°F-4.9°C 67% 2.3 mph N3.7 kmh N 3.5 mph5.6 kmh 29.99 in1015.6 mb - 0.00 in0.0 mm 0.00 in0.0 mm
02:50 AM 32.7°F0.4°C 23.3°F-4.8°C 68% 1.2 mph 1.9 kmh 3.5 mph5.6 kmh 29.99 in1015.6 mb - 0.00 in0.0 mm 0.00 in0.0 mm
03:00 AM 32.5°F0.3°C 22.8°F-5.1°C 67% 3.5 mph N5.6 kmh N 8.1 mph13.0 kmh 29.99 in1015.6 mb - 0.00 in0.0 mm 0.00 in0.0 mm
03:20 AM 32.2°F0.1°C 22.8°F-5.1°C 68% 2.3 mph N3.7 kmh N 4.6 mph7.4 kmh 30.00 in1015.9 mb - 0.00 in0.0 mm 0.00 in0.0 mm
04:10 AM 32.3°F0.2°C 21.5°F-5.8°C 64% 8.1 mph NNE13.0 kmh NNE 10.4 mph16.7 kmh 29.99 in1015.6 mb - 0.00 in0.0 mm 0.00 in0.0 mm
04:30 AM 32.3°F0.2°C 21.5°F-5.8°C 64% 3.5 mph N5.6 kmh N 9.2 mph14.8 kmh 30.00 in1015.9 mb - 0.00 in0.0 mm 0.00 in0.0 mm
04:40 AM 32.4°F0.2°C 21.9°F-5.6°C 65% 2.3 mph N3.7 kmh N 6.9 mph11.1 kmh 29.99 in1015.6 mb - 0.00 in0.0 mm 0.00 in0.0 mm
04:50 AM 32.4°F0.2°C 21.9°F-5.6°C 65% 4.6 mph N7.4 kmh N 8.1 mph13.0 kmh 29.99 in1015.6 mb - 0.00 in0.0 mm 0.00 in0.0 mm
05:30 AM 32.3°F0.2°C 21.5°F-5.8°C 64% 2.3 mph N3.7 kmh N 8.1 mph13.0 kmh 30.00 in1015.9 mb - 0.00 in0.0 mm 0.00 in0.0 mm
06:00 AM 31.9°F-0.1°C 21.1°F-6.1°C 64% 2.3 mph N3.7 kmh N 4.6 mph7.4 kmh 30.01 in1016.3 mb - 0.00 in0.0 mm 0.00 in0.0 mm
06:10 AM 31.6°F-0.2°C 20.8°F-6.2°C 64% Calm Calm 1.2 mph1.9 kmh 30.02 in1016.6 mb - 0.00 in0.0 mm 0.00 in0.0 mm
06:20 AM 31.4°F-0.3°C 21.0°F-6.1°C 65% 2.3 mph N3.7 kmh N 5.8 mph9.3 kmh 30.02 in1016.6 mb - 0.00 in0.0 mm 0.00 in0.0 mm
06:40 AM 31.1°F-0.5°C 21.1°F-6.1°C 66% Calm Calm 3.5 mph5.6 kmh 30.02 in1016.6 mb - 0.00 in0.0 mm 0.00 in0.0 mm
06:50 AM 31.2°F-0.4°C 21.2°F-6.0°C 66% Calm Calm 1.2 mph1.9 kmh 30.02 in1016.6 mb - 0.00 in0.0 mm 0.00 in0.0 mm
07:00 AM 31.4°F-0.3°C 21.0°F-6.1°C 65% Calm Calm 1.2 mph1.9 kmh 30.03 in1016.9 mb - 0.00 in0.0 mm 0.00 in0.0 mm
07:30 AM 30.2°F-1.0°C 23.2°F-4.9°C 75% 2.3 mph N3.7 kmh N 3.5 mph5.6 kmh 30.03 in1016.9 mb - 0.00 in0.0 mm 0.00 in0.0 mm
08:10 AM 30.1°F-1.1°C 25.3°F-3.7°C 82% 1.2 mph 1.9 kmh 3.5 mph5.6 kmh 30.04 in1017.3 mb - 0.00 in0.0 mm 0.00 in0.0 mm
08:30 AM 31.8°F-0.1°C 26.1°F-3.3°C 79% 2.3 mph N3.7 kmh N 3.5 mph5.6 kmh 30.05 in1017.6 mb - 0.00 in0.0 mm 0.00 in0.0 mm
08:40 AM 32.1°F0.1°C 26.0°F-3.3°C 78% 2.3 mph 3.7 kmh 3.5 mph5.6 kmh 30.05 in1017.6 mb - 0.00 in0.0 mm 0.00 in0.0 mm
09:00 AM 33.1°F0.6°C 26.7°F-2.9°C 77% 1.2 mph 1.9 kmh 4.6 mph7.4 kmh 30.05 in1017.6 mb - 0.00 in0.0 mm 0.00 in0.0 mm
09:10 AM 33.4°F0.8°C 27.3°F-2.6°C 78% 1.2 mph 1.9 kmh 2.3 mph3.7 kmh 30.05 in1017.6 mb - 0.00 in0.0 mm 0.00 in0.0 mm
09:20 AM 34.2°F1.2°C 27.4°F-2.6°C 76% 3.5 mph N5.6 kmh N 3.5 mph5.6 kmh 30.06 in1017.9 mb - 0.00 in0.0 mm 0.00 in0.0 mm
09:30 AM 34.7°F1.5°C 27.9°F-2.3°C 76% Calm Calm 2.3 mph3.7 kmh 30.06 in1017.9 mb - 0.00 in0.0 mm 0.00 in0.0 mm
09:40 AM 35.0°F1.7°C 28.2°F-2.1°C 76% Calm Calm -- 30.06 in1017.9 mb - 0.00 in0.0 mm 0.00 in0.0 mm
09:50 AM 36.4°F2.4°C 29.2°F-1.6°C 75% Calm Calm -- 30.07 in1018.3 mb - 0.00 in0.0 mm 0.00 in0.0 mm
10:00 AM 36.8°F2.7°C 29.3°F-1.5°C 74% Calm Calm -- 30.07 in1018.3 mb - 0.00 in0.0 mm 0.00 in0.0 mm
10:10 AM 37.0°F2.8°C 30.1°F-1.1°C 76% Calm Calm -- 30.07 in1018.3 mb - 0.00 in0.0 mm 0.00 in0.0 mm
10:20 AM 37.1°F2.8°C 30.3°F-0.9°C 76% Calm Calm -- 30.08 in1018.6 mb - 0.00 in0.0 mm 0.00 in0.0 mm
10:30 AM 36.9°F2.7°C 30.7°F-0.7°C 78% Calm Calm -- 30.08 in1018.6 mb - 0.00 in0.0 mm 0.00 in0.0 mm
10:40 AM 36.5°F2.5°C 31.2°F-0.4°C 81% 1.2 mph NNW1.9 kmh NNW 3.5 mph5.6 kmh 30.07 in1018.3 mb - 0.00 in0.0 mm 0.00 in0.0 mm
10:50 AM 35.7°F2.1°C 30.7°F-0.7°C 82% 1.2 mph NNW1.9 kmh NNW 3.5 mph5.6 kmh 30.07 in1018.3 mb - 0.00 in0.0 mm 0.00 in0.0 mm
11:00 AM 36.5°F2.5°C 32.2°F0.1°C 84% Calm Calm 3.5 mph5.6 kmh 30.07 in1018.3 mb - 0.00 in0.0 mm 0.00 in0.0 mm
11:10 AM 37.8°F3.2°C 32.8°F0.4°C 82% Calm Calm -- 30.07 in1018.3 mb - 0.00 in0.0 mm 0.00 in0.0 mm
11:20 AM 37.6°F3.1°C 32.0°F0.0°C 80% 1.2 mph NNW1.9 kmh NNW 4.6 mph7.4 kmh 30.07 in1018.3 mb - 0.00 in0.0 mm 0.00 in0.0 mm
11:30 AM 38.0°F3.3°C 32.7°F0.4°C 81% Calm Calm 2.3 mph3.7 kmh 30.07 in1018.3 mb - 0.00 in0.0 mm 0.00 in0.0 mm
11:40 AM 38.6°F3.7°C 33.0°F0.6°C 80% 3.5 mph N5.6 kmh N 3.5 mph5.6 kmh 30.06 in1017.9 mb - 0.00 in0.0 mm 0.00 in0.0 mm
11:50 AM 38.9°F3.8°C 32.3°F0.2°C 77% Calm Calm 2.3 mph3.7 kmh 30.06 in1017.9 mb - 0.00 in0.0 mm 0.00 in0.0 mm
12:00 PM 39.6°F4.2°C 32.0°F0.0°C 74% Calm Calm 1.2 mph1.9 kmh 30.06 in1017.9 mb - 0.00 in0.0 mm 0.00 in0.0 mm
12:10 PM 39.8°F4.3°C 31.5°F-0.3°C 72% 1.2 mph NNE1.9 kmh NNE 4.6 mph7.4 kmh 30.05 in1017.6 mb - 0.00 in0.0 mm 0.00 in0.0 mm
12:20 PM 40.1°F4.5°C 30.7°F-0.7°C 69% Calm Calm -- 30.05 in1017.6 mb - 0.00 in0.0 mm 0.00 in0.0 mm
12:30 PM 40.4°F4.7°C 30.0°F-1.1°C 66% Calm Calm -- 30.05 in1017.6 mb - 0.00 in0.0 mm 0.00 in0.0 mm
12:40 PM 40.9°F4.9°C 29.7°F-1.3°C 64% Calm Calm 3.5 mph5.6 kmh 30.04 in1017.3 mb - 0.00 in0.0 mm 0.00 in0.0 mm
12:50 PM 41.1°F5.1°C 27.5°F-2.5°C 58% 4.6 mph SW7.4 kmh SW 11.5 mph18.5 kmh 30.04 in1017.3 mb - 0.00 in0.0 mm 0.00 in0.0 mm
01:00 PM 43.4°F6.3°C 20.1°F-6.6°C 39% 12.7 mph SW20.4 kmh SW 19.6 mph31.5 kmh 30.03 in1016.9 mb - 0.00 in0.0 mm 0.00 in0.0 mm
01:10 PM 44.0°F6.7°C 18.7°F-7.4°C 36% 11.5 mph SW18.5 kmh SW 17.3 mph27.8 kmh 30.03 in1016.9 mb - 0.00 in0.0 mm 0.00 in0.0 mm
01:20 PM 45.6°F7.6°C 18.8°F-7.3°C 34% 15.0 mph SW24.1 kmh SW 20.7 mph33.3 kmh 30.03 in1016.9 mb - 0.00 in0.0 mm 0.00 in0.0 mm
01:30 PM 46.2°F7.9°C 16.4°F-8.7°C 30% 9.2 mph SW14.8 kmh SW 15.0 mph24.1 kmh 30.03 in1016.9 mb - 0.00 in0.0 mm 0.00 in0.0 mm
01:40 PM 46.2°F7.9°C 18.7°F-7.4°C 33% 10.4 mph WSW16.7 kmh WSW 17.3 mph27.8 kmh 30.03 in1016.9 mb - 0.00 in0.0 mm 0.00 in0.0 mm
01:50 PM 47.6°F8.7°C 19.2°F-7.1°C 32% 9.2 mph SW14.8 kmh SW 23.0 mph37.0 kmh 30.02 in1016.6 mb - 0.00 in0.0 mm 0.00 in0.0 mm
02:00 PM 47.6°F8.7°C 17.6°F-8.0°C 30% 12.7 mph SW20.4 kmh SW 19.6 mph31.5 kmh 30.02 in1016.6 mb - 0.00 in0.0 mm 0.00 in0.0 mm
02:10 PM 47.4°F8.6°C 17.5°F-8.1°C 30% 8.1 mph WSW13.0 kmh WSW 19.6 mph31.5 kmh 30.02 in1016.6 mb - 0.00 in0.0 mm 0.00 in0.0 mm
02:20 PM 48.2°F9.0°C 17.3°F-8.2°C 29% 11.5 mph SW18.5 kmh SW 21.9 mph35.2 kmh 30.02 in1016.6 mb - 0.00 in0.0 mm 0.00 in0.0 mm
02:30 PM 47.8°F8.8°C 17.0°F-8.3°C 29% 8.1 mph SW13.0 kmh SW 16.1 mph25.9 kmh 30.01 in1016.3 mb - 0.00 in0.0 mm 0.00 in0.0 mm
02:40 PM 47.7°F8.7°C 16.2°F-8.8°C 28% 10.4 mph SW16.7 kmh SW 13.8 mph22.2 kmh 30.01 in1016.3 mb - 0.00 in0.0 mm 0.00 in0.0 mm
02:50 PM 48.2°F9.0°C 16.6°F-8.6°C 28% 5.8 mph SW9.3 kmh SW 10.4 mph16.7 kmh 30.01 in1016.3 mb - 0.00 in0.0 mm 0.00 in0.0 mm
03:00 PM 47.5°F8.6°C 15.1°F-9.4°C 27% 8.1 mph SW13.0 kmh SW 11.5 mph18.5 kmh 30.01 in1016.3 mb - 0.00 in0.0 mm 0.00 in0.0 mm
03:10 PM 48.3°F9.1°C 15.8°F-9.0°C 27% 1.2 mph SW1.9 kmh SW 3.5 mph5.6 kmh 30.01 in1016.3 mb - 0.00 in0.0 mm 0.00 in0.0 mm
03:20 PM 49.4°F9.7°C 15.9°F-8.9°C 26% 3.5 mph WSW5.6 kmh WSW 6.9 mph11.1 kmh 30.01 in1016.3 mb - 0.00 in0.0 mm 0.00 in0.0 mm
03:30 PM 49.6°F9.8°C 15.2°F-9.3°C 25% 3.5 mph SW5.6 kmh SW 5.8 mph9.3 kmh 30.01 in1016.3 mb - 0.00 in0.0 mm 0.00 in0.0 mm
03:40 PM 48.6°F9.2°C 15.2°F-9.3°C 26% 5.8 mph WSW9.3 kmh WSW 8.1 mph13.0 kmh 30.01 in1016.3 mb - 0.00 in0.0 mm 0.00 in0.0 mm
03:50 PM 49.0°F9.4°C 14.7°F-9.6°C 25% 3.5 mph SSW5.6 kmh SSW 6.9 mph11.1 kmh 30.01 in1016.3 mb - 0.00 in0.0 mm 0.00 in0.0 mm
04:00 PM 48.5°F9.2°C 16.0°F-8.9°C 27% 2.3 mph SW3.7 kmh SW 11.5 mph18.5 kmh 30.01 in1016.3 mb - 0.00 in0.0 mm 0.00 in0.0 mm
04:10 PM 48.8°F9.3°C 16.2°F-8.8°C 27% Calm Calm 2.3 mph3.7 kmh 30.00 in1015.9 mb - 0.00 in0.0 mm 0.00 in0.0 mm
04:20 PM 49.6°F9.8°C 16.1°F-8.8°C 26% 2.3 mph WSW3.7 kmh WSW 9.2 mph14.8 kmh 30.00 in1015.9 mb - 0.00 in0.0 mm 0.00 in0.0 mm
04:30 PM 48.9°F9.4°C 15.5°F-9.2°C 26% 8.1 mph SW13.0 kmh SW 11.5 mph18.5 kmh 30.00 in1015.9 mb - 0.00 in0.0 mm 0.00 in0.0 mm
04:40 PM 48.0°F8.9°C 14.7°F-9.6°C 26% 2.3 mph WSW3.7 kmh WSW 2.3 mph3.7 kmh 30.00 in1015.9 mb - 0.00 in0.0 mm 0.00 in0.0 mm
04:50 PM 47.7°F8.7°C 14.4°F-9.8°C 26% 2.3 mph WSW3.7 kmh WSW 9.2 mph14.8 kmh 30.00 in1015.9 mb - 0.00 in0.0 mm 0.00 in0.0 mm
05:00 PM 47.3°F8.5°C 13.2°F-10.4°C 25% 1.2 mph WSW1.9 kmh WSW 6.9 mph11.1 kmh 30.00 in1015.9 mb - 0.00 in0.0 mm 0.00 in0.0 mm
05:10 PM 47.0°F8.3°C 13.8°F-10.1°C 26% Calm Calm 3.5 mph5.6 kmh 30.00 in1015.9 mb - 0.00 in0.0 mm 0.00 in0.0 mm
05:20 PM 46.6°F8.1°C 13.5°F-10.3°C 26% 3.5 mph WSW5.6 kmh WSW 11.5 mph18.5 kmh 30.00 in1015.9 mb - 0.00 in0.0 mm 0.00 in0.0 mm
05:30 PM 46.1°F7.8°C 13.1°F-10.5°C 26% Calm Calm 3.5 mph5.6 kmh 30.00 in1015.9 mb - 0.00 in0.0 mm 0.00 in0.0 mm
05:40 PM 45.8°F7.7°C 13.7°F-10.2°C 27% 1.2 mph WSW1.9 kmh WSW 3.5 mph5.6 kmh 30.00 in1015.9 mb - 0.00 in0.0 mm 0.00 in0.0 mm
05:50 PM 45.2°F7.3°C 14.0°F-10.0°C 28% Calm Calm 2.3 mph3.7 kmh 30.01 in1016.3 mb - 0.00 in0.0 mm 0.00 in0.0 mm
06:00 PM 44.7°F7.1°C 13.5°F-10.3°C 28% Calm Calm -- 30.01 in1016.3 mb - 0.00 in0.0 mm 0.00 in0.0 mm
06:10 PM 44.1°F6.7°C 13.1°F-10.5°C 28% Calm Calm -- 30.01 in1016.3 mb - 0.00 in0.0 mm 0.00 in0.0 mm
06:20 PM 43.4°F6.3°C 14.0°F-10.0°C 30% Calm Calm -- 30.01 in1016.3 mb - 0.00 in0.0 mm 0.00 in0.0 mm
06:30 PM 42.6°F5.9°C 14.8°F-9.6°C 32% 4.6 mph NW7.4 kmh NW 5.8 mph9.3 kmh 30.02 in1016.6 mb - 0.00 in0.0 mm 0.00 in0.0 mm
06:40 PM 41.2°F5.1°C 17.5°F-8.1°C 38% Calm Calm 3.5 mph5.6 kmh 30.02 in1016.6 mb - 0.00 in0.0 mm 0.00 in0.0 mm
06:50 PM 40.2°F4.6°C 18.4°F-7.6°C 41% 1.2 mph NW1.9 kmh NW 3.5 mph5.6 kmh 30.02 in1016.6 mb - 0.00 in0.0 mm 0.00 in0.0 mm
07:00 PM 39.5°F4.2°C 19.3°F-7.1°C 44% Calm Calm 1.2 mph1.9 kmh 30.02 in1016.6 mb - 0.00 in0.0 mm 0.00 in0.0 mm
07:10 PM 39.0°F3.9°C 19.4°F-7.0°C 45% Calm Calm 1.2 mph1.9 kmh 30.03 in1016.9 mb - 0.00 in0.0 mm 0.00 in0.0 mm
07:20 PM 38.5°F3.6°C 19.5°F-6.9°C 46% Calm Calm 2.3 mph3.7 kmh 30.03 in1016.9 mb - 0.00 in0.0 mm 0.00 in0.0 mm
07:30 PM 38.3°F3.5°C 18.8°F-7.3°C 45% Calm Calm 2.3 mph3.7 kmh 30.03 in1016.9 mb - 0.00 in0.0 mm 0.00 in0.0 mm
07:40 PM 38.0°F3.3°C 19.0°F-7.2°C 46% Calm Calm -- 30.03 in1016.9 mb - 0.00 in0.0 mm 0.00 in0.0 mm
07:50 PM 37.7°F3.2°C 19.2°F-7.1°C 47% Calm Calm 1.2 mph1.9 kmh 30.03 in1016.9 mb - 0.00 in0.0 mm 0.00 in0.0 mm
08:00 PM 37.2°F2.9°C 19.2°F-7.1°C 48% Calm Calm -- 30.03 in1016.9 mb - 0.00 in0.0 mm 0.00 in0.0 mm
08:10 PM 36.9°F2.7°C 19.0°F-7.2°C 48% Calm Calm -- 30.03 in1016.9 mb - 0.00 in0.0 mm 0.00 in0.0 mm
08:20 PM 36.5°F2.5°C 19.1°F-7.2°C 49% Calm Calm 2.3 mph3.7 kmh 30.03 in1016.9 mb - 0.00 in0.0 mm 0.00 in0.0 mm
08:30 PM 36.3°F2.4°C 19.4°F-7.0°C 50% 1.2 mph NW1.9 kmh NW 3.5 mph5.6 kmh 30.03 in1016.9 mb - 0.00 in0.0 mm 0.00 in0.0 mm
08:40 PM 36.1°F2.3°C 19.2°F-7.1°C 50% Calm Calm 1.2 mph1.9 kmh 30.04 in1017.3 mb - 0.00 in0.0 mm 0.00 in0.0 mm
08:50 PM 35.8°F2.1°C 19.4°F-7.0°C 51% Calm Calm 2.3 mph3.7 kmh 30.04 in1017.3 mb - 0.00 in0.0 mm 0.00 in0.0 mm
09:00 PM 35.2°F1.8°C 19.3°F-7.1°C 52% 1.2 mph NW1.9 kmh NW 3.5 mph5.6 kmh 30.04 in1017.3 mb - 0.00 in0.0 mm 0.00 in0.0 mm
09:10 PM 34.5°F1.4°C 19.1°F-7.2°C 53% 1.2 mph NW1.9 kmh NW 3.5 mph5.6 kmh 30.04 in1017.3 mb - 0.00 in0.0 mm 0.00 in0.0 mm
09:20 PM 34.2°F1.2°C 18.8°F-7.3°C 53% Calm Calm 2.3 mph3.7 kmh 30.05 in1017.6 mb - 0.00 in0.0 mm 0.00 in0.0 mm
09:30 PM 34.0°F1.1°C 19.1°F-7.2°C 54% Calm Calm 1.2 mph1.9 kmh 30.05 in1017.6 mb - 0.00 in0.0 mm 0.00 in0.0 mm
09:40 PM 33.5°F0.8°C 19.1°F-7.2°C 55% 1.2 mph NW1.9 kmh NW 3.5 mph5.6 kmh 30.05 in1017.6 mb - 0.00 in0.0 mm 0.00 in0.0 mm
09:50 PM 32.9°F0.5°C 18.5°F-7.5°C 55% Calm Calm -- 30.05 in1017.6 mb - 0.00 in0.0 mm 0.00 in0.0 mm
10:00 PM 32.4°F0.2°C 18.4°F-7.6°C 56% Calm Calm 3.5 mph5.6 kmh 30.05 in1017.6 mb - 0.00 in0.0 mm 0.00 in0.0 mm
10:10 PM 31.8°F-0.1°C 18.3°F-7.6°C 57% Calm Calm 2.3 mph3.7 kmh 30.06 in1017.9 mb - 0.00 in0.0 mm 0.00 in0.0 mm
10:20 PM 31.5°F-0.3°C 18.0°F-7.8°C 57% Calm Calm -- 30.06 in1017.9 mb - 0.00 in0.0 mm 0.00 in0.0 mm
10:30 PM 31.2°F-0.4°C 18.2°F-7.7°C 58% Calm Calm -- 30.06 in1017.9 mb - 0.00 in0.0 mm 0.00 in0.0 mm
10:40 PM 30.8°F-0.7°C 18.1°F-7.7°C 59% Calm Calm 1.2 mph1.9 kmh 30.07 in1018.3 mb - 0.00 in0.0 mm 0.00 in0.0 mm
10:50 PM 30.6°F-0.8°C 18.0°F-7.8°C 59% Calm Calm -- 30.07 in1018.3 mb - 0.00 in0.0 mm 0.00 in0.0 mm
11:00 PM 30.4°F-0.9°C 18.5°F-7.5°C 61% Calm Calm 2.3 mph3.7 kmh 30.07 in1018.3 mb - 0.00 in0.0 mm 0.00 in0.0 mm
11:10 PM 30.0°F-1.1°C 18.5°F-7.5°C 62% Calm Calm 2.3 mph3.7 kmh 30.08 in1018.6 mb - 0.00 in0.0 mm 0.00 in0.0 mm
11:20 PM 29.9°F-1.2°C 18.8°F-7.3°C 63% Calm Calm -- 30.08 in1018.6 mb - 0.00 in0.0 mm 0.00 in0.0 mm
11:30 PM 29.7°F-1.3°C 18.6°F-7.4°C 63% Calm Calm -- 30.08 in1018.6 mb - 0.00 in0.0 mm 0.00 in0.0 mm
11:40 PM 29.2°F-1.6°C 18.5°F-7.5°C 64% Calm Calm -- 30.08 in1018.6 mb - 0.00 in0.0 mm 0.00 in0.0 mm
11:50 PM 28.9°F-1.7°C 18.2°F-7.7°C 64% Calm Calm -- 30.08 in1018.6 mb - 0.00 in0.0 mm 0.00 in0.0 mm